Time;durP1;ratioP1;P1;durP2;ratioP2;P2;SDS_P1;SDS_P2;PMS_P1;PMS_P2;Temp;Humidity;BMP_temperature;BMP_pressure;BME280_temperature;BME280_humidity;BME280_pressure;Samples;Min_cycle;Max_cycle;Signal;HPM_P1;HPM_P2
2022/08/20 00:00:00;;;;;;;0.4;0.4;;;;;;;21.7;100.0;101280;;;;
2022/08/20 00:01:03;;;;;;;0.4;0.4;;;;;;;21.7;100.0;101280;;;;
2022/08/20 00:02:00;;;;;;;0.4;0.4;;;;;;;21.6;100.0;101280;;;;
2022/08/20 00:03:02;;;;;;;0.4;0.4;;;;;;;21.6;100.0;101280;;;;
2022/08/20 00:04:01;;;;;;;0.4;0.4;;;;;;;21.7;100.0;101280;;;;
2022/08/20 00:05:00;;;;;;;0.4;0.4;;;;;;;21.7;100.0;101280;;;;
2022/08/20 00:06:02;;;;;;;0.4;0.4;;;;;;;21.6;100.0;101270;;;;
2022/08/20 00:07:00;;;;;;;0.4;0.4;;;;;;;21.6;100.0;101270;;;;
2022/08/20 00:08:00;;;;;;;0.4;0.4;;;;;;;21.6;100.0;101270;;;;
2022/08/20 00:09:00;;;;;;;0.4;0.4;;;;;;;21.6;100.0;101270;;;;
2022/08/20 00:10:00;;;;;;;0.4;0.4;;;;;;;21.6;100.0;101270;;;;
2022/08/20 00:11:01;;;;;;;0.4;0.4;;;;;;;21.6;100.0;101270;;;;
2022/08/20 00:12:00;;;;;;;0.4;0.4;;;;;;;21.5;100.0;101280;;;;
2022/08/20 00:13:00;;;;;;;0.4;0.4;;;;;;;21.5;100.0;101280;;;;
2022/08/20 00:14:01;;;;;;;0.4;0.4;;;;;;;21.5;100.0;101270;;;;
2022/08/20 00:15:00;;;;;;;0.4;0.4;;;;;;;21.5;100.0;101270;;;;
2022/08/20 00:16:01;;;;;;;0.4;0.4;;;;;;;21.5;100.0;101280;;;;
2022/08/20 00:17:00;;;;;;;0.4;0.4;;;;;;;21.5;100.0;101280;;;;
2022/08/20 00:18:00;;;;;;;0.4;0.4;;;;;;;21.5;100.0;101280;;;;
2022/08/20 00:19:00;;;;;;;0.4;0.4;;;;;;;21.5;100.0;101280;;;;
2022/08/20 00:20:00;;;;;;;0.4;0.4;;;;;;;21.4;100.0;101280;;;;
2022/08/20 00:21:00;;;;;;;0.4;0.4;;;;;;;21.4;100.0;101280;;;;
2022/08/20 00:22:00;;;;;;;0.4;0.4;;;;;;;21.4;100.0;101280;;;;
2022/08/20 00:23:00;;;;;;;0.4;0.4;;;;;;;21.4;100.0;101280;;;;
2022/08/20 00:24:00;;;;;;;0.4;0.4;;;;;;;21.4;100.0;101270;;;;
2022/08/20 00:25:00;;;;;;;0.4;0.4;;;;;;;21.4;100.0;101270;;;;
2022/08/20 00:26:00;;;;;;;0.4;0.4;;;;;;;21.3;100.0;101280;;;;
2022/08/20 00:27:00;;;;;;;0.4;0.4;;;;;;;21.3;100.0;101280;;;;
2022/08/20 00:28:02;;;;;;;0.4;0.4;;;;;;;21.4;100.0;101280;;;;
2022/08/20 00:29:00;;;;;;;0.4;0.4;;;;;;;21.4;100.0;101280;;;;
2022/08/20 00:30:00;;;;;;;0.4;0.4;;;;;;;21.4;100.0;101280;;;;
2022/08/20 00:31:02;;;;;;;0.4;0.4;;;;;;;21.4;100.0;101280;;;;
2022/08/20 00:32:00;;;;;;;0.4;0.4;;;;;;;21.4;100.0;101280;;;;
2022/08/20 00:33:02;;;;;;;0.4;0.4;;;;;;;21.4;100.0;101280;;;;
2022/08/20 00:34:00;;;;;;;0.4;0.4;;;;;;;21.3;100.0;101280;;;;
2022/08/20 00:35:00;;;;;;;0.4;0.4;;;;;;;21.3;100.0;101280;;;;
2022/08/20 00:36:05;;;;;;;0.4;0.4;;;;;;;21.3;100.0;101280;;;;
2022/08/20 00:37:00;;;;;;;0.4;0.4;;;;;;;21.3;100.0;101280;;;;
2022/08/20 00:38:01;;;;;;;0.4;0.4;;;;;;;21.3;100.0;101280;;;;
2022/08/20 00:39:00;;;;;;;0.4;0.4;;;;;;;21.3;100.0;101280;;;;
2022/08/20 00:40:00;;;;;;;0.4;0.4;;;;;;;21.3;100.0;101280;;;;
2022/08/20 00:41:00;;;;;;;0.4;0.4;;;;;;;21.3;100.0;101280;;;;
2022/08/20 00:42:00;;;;;;;0.4;0.4;;;;;;;21.2;100.0;101280;;;;
2022/08/20 00:43:01;;;;;;;0.3;0.3;;;;;;;21.2;100.0;101280;;;;
2022/08/20 00:44:07;;;;;;;0.3;0.3;;;;;;;21.4;100.0;101280;;;;
2022/08/20 00:45:00;;;;;;;0.3;0.3;;;;;;;21.4;100.0;101280;;;;
2022/08/20 00:46:02;;;;;;;0.3;0.3;;;;;;;21.3;100.0;101280;;;;
2022/08/20 00:47:00;;;;;;;0.3;0.3;;;;;;;21.3;100.0;101280;;;;
2022/08/20 00:48:00;;;;;;;0.3;0.3;;;;;;;21.2;100.0;101280;;;;
2022/08/20 00:49:04;;;;;;;0.3;0.3;;;;;;;21.2;100.0;101280;;;;
2022/08/20 00:50:00;;;;;;;0.3;0.3;;;;;;;21.2;100.0;101280;;;;
2022/08/20 00:51:04;;;;;;;0.3;0.3;;;;;;;21.2;100.0;101280;;;;
2022/08/20 00:52:04;;;;;;;0.3;0.3;;;;;;;21.1;100.0;101280;;;;
2022/08/20 00:53:01;;;;;;;0.3;0.3;;;;;;;21.1;100.0;101280;;;;
2022/08/20 00:54:02;;;;;;;0.3;0.3;;;;;;;21.2;100.0;101280;;;;
2022/08/20 00:55:00;;;;;;;0.3;0.3;;;;;;;21.2;100.0;101280;;;;
2022/08/20 00:56:00;;;;;;;0.3;0.3;;;;;;;21.2;100.0;101280;;;;
2022/08/20 00:57:05;;;;;;;0.3;0.3;;;;;;;21.2;100.0;101280;;;;
2022/08/20 00:58:02;;;;;;;0.3;0.3;;;;;;;21.2;100.0;101280;;;;
2022/08/20 00:59:00;;;;;;;0.3;0.3;;;;;;;21.2;100.0;101280;;;;
2022/08/20 01:00:02;;;;;;;0.3;0.3;;;;;;;21.2;100.0;101280;;;;
2022/08/20 01:01:00;;;;;;;0.3;0.3;;;;;;;21.2;100.0;101280;;;;
2022/08/20 01:02:01;;;;;;;0.3;0.3;;;;;;;21.3;100.0;101270;;;;
2022/08/20 01:03:00;;;;;;;0.2;0.2;;;;;;;21.3;100.0;101270;;;;
2022/08/20 01:04:00;;;;;;;0.2;0.2;;;;;;;21.2;100.0;101270;;;;
2022/08/20 01:05:00;;;;;;;0.2;0.2;;;;;;;21.2;100.0;101270;;;;
2022/08/20 01:06:00;;;;;;;0.2;0.2;;;;;;;21.3;100.0;101270;;;;
2022/08/20 01:07:01;;;;;;;0.2;0.2;;;;;;;21.3;100.0;101270;;;;
2022/08/20 01:08:00;;;;;;;0.2;0.2;;;;;;;21.3;100.0;101270;;;;
2022/08/20 01:09:01;;;;;;;0.2;0.2;;;;;;;21.3;100.0;101270;;;;
2022/08/20 01:10:02;;;;;;;0.2;0.2;;;;;;;21.2;100.0;101270;;;;
2022/08/20 01:12:00;;;;;;;0.2;0.2;;;;;;;21.2;100.0;101270;;;;
2022/08/20 01:13:02;;;;;;;0.2;0.2;;;;;;;21.2;100.0;101270;;;;
2022/08/20 01:14:11;;;;;;;0.2;0.2;;;;;;;21.3;100.0;101270;;;;
2022/08/20 01:15:01;;;;;;;0.2;0.2;;;;;;;21.3;100.0;101270;;;;
2022/08/20 01:16:02;;;;;;;0.2;0.2;;;;;;;21.3;100.0;101270;;;;
2022/08/20 01:17:02;;;;;;;0.2;0.2;;;;;;;21.3;100.0;101270;;;;
2022/08/20 01:18:01;;;;;;;0.2;0.2;;;;;;;21.3;100.0;101270;;;;
2022/08/20 01:19:00;;;;;;;0.2;0.2;;;;;;;21.3;100.0;101270;;;;
2022/08/20 01:20:01;;;;;;;0.2;0.2;;;;;;;21.4;100.0;101270;;;;
2022/08/20 01:21:02;;;;;;;0.2;0.2;;;;;;;21.4;100.0;101270;;;;
2022/08/20 01:23:25;;;;;;;0.2;0.2;;;;;;;21.2;100.0;101270;;;;
2022/08/20 01:24:05;;;;;;;0.1;0.1;;;;;;;21.3;100.0;101270;;;;
2022/08/20 01:25:10;;;;;;;0.1;0.1;;;;;;;21.3;100.0;101270;;;;
2022/08/20 01:26:05;;;;;;;0.1;0.1;;;;;;;21.3;100.0;101270;;;;
2022/08/20 01:27:02;;;;;;;0.1;0.1;;;;;;;21.3;100.0;101270;;;;
2022/08/20 01:28:01;;;;;;;0.1;0.1;;;;;;;21.2;100.0;101270;;;;
2022/08/20 01:29:03;;;;;;;0.1;0.1;;;;;;;21.2;100.0;101270;;;;
2022/08/20 01:30:06;;;;;;;0.1;0.1;;;;;;;21.2;100.0;101270;;;;
2022/08/20 01:31:00;;;;;;;0.1;0.1;;;;;;;21.2;100.0;101270;;;;
2022/08/20 01:32:01;;;;;;;0.1;0.1;;;;;;;21.2;100.0;101270;;;;
2022/08/20 01:33:01;;;;;;;0.1;0.1;;;;;;;21.2;100.0;101270;;;;
2022/08/20 01:34:01;;;;;;;0.1;0.1;;;;;;;21.2;100.0;101270;;;;
2022/08/20 01:35:00;;;;;;;0.1;0.1;;;;;;;21.2;100.0;101270;;;;
2022/08/20 01:36:00;;;;;;;0.1;0.1;;;;;;;21.1;100.0;101270;;;;
2022/08/20 01:37:00;;;;;;;0.1;0.1;;;;;;;21.1;100.0;101270;;;;
2022/08/20 01:38:00;;;;;;;0.1;0.1;;;;;;;21.1;100.0;101270;;;;
2022/08/20 01:39:00;;;;;;;0.1;0.1;;;;;;;21.1;100.0;101270;;;;
2022/08/20 01:40:01;;;;;;;0.1;0.1;;;;;;;21.2;100.0;101270;;;;
2022/08/20 01:41:03;;;;;;;0.1;0.1;;;;;;;21.2;100.0;101270;;;;
2022/08/20 01:42:00;;;;;;;0.1;0.1;;;;;;;21.2;100.0;101270;;;;
2022/08/20 01:43:05;;;;;;;0.3;0.3;;;;;;;21.2;100.0;101270;;;;
2022/08/20 01:44:00;;;;;;;0.3;0.3;;;;;;;21.3;100.0;101270;;;;
2022/08/20 01:45:04;;;;;;;0.3;0.3;;;;;;;21.3;100.0;101270;;;;
2022/08/20 01:46:00;;;;;;;0.3;0.3;;;;;;;21.2;100.0;101270;;;;
2022/08/20 01:47:11;;;;;;;0.3;0.3;;;;;;;21.2;100.0;101270;;;;
2022/08/20 01:48:01;;;;;;;0.3;0.3;;;;;;;21.2;100.0;101270;;;;
2022/08/20 01:49:13;;;;;;;0.3;0.3;;;;;;;21.2;100.0;101270;;;;
2022/08/20 01:50:05;;;;;;;0.3;0.3;;;;;;;21.2;100.0;101270;;;;
2022/08/20 01:51:06;;;;;;;0.3;0.3;;;;;;;21.2;100.0;101270;;;;
2022/08/20 01:52:04;;;;;;;0.3;0.3;;;;;;;21.2;100.0;101270;;;;
2022/08/20 01:53:08;;;;;;;0.3;0.3;;;;;;;21.2;100.0;101270;;;;
2022/08/20 01:54:00;;;;;;;0.3;0.3;;;;;;;21.2;100.0;101270;;;;
2022/08/20 01:55:00;;;;;;;0.3;0.3;;;;;;;21.2;100.0;101270;;;;
2022/08/20 01:56:01;;;;;;;0.3;0.3;;;;;;;21.3;100.0;101270;;;;
2022/08/20 01:57:02;;;;;;;0.3;0.3;;;;;;;21.3;100.0;101270;;;;
2022/08/20 01:58:00;;;;;;;0.3;0.3;;;;;;;21.2;100.0;101270;;;;
2022/08/20 01:59:01;;;;;;;0.3;0.3;;;;;;;21.2;100.0;101270;;;;
2022/08/20 02:00:01;;;;;;;0.3;0.3;;;;;;;21.3;100.0;101270;;;;
2022/08/20 02:01:00;;;;;;;0.3;0.3;;;;;;;21.3;100.0;101270;;;;
2022/08/20 02:02:01;;;;;;;0.3;0.3;;;;;;;21.2;100.0;101270;;;;
2022/08/20 02:03:02;;;;;;;0.1;0.1;;;;;;;21.2;100.0;101270;;;;
2022/08/20 02:04:01;;;;;;;0.1;0.1;;;;;;;21.2;100.0;101270;;;;
2022/08/20 02:05:00;;;;;;;0.1;0.1;;;;;;;21.2;100.0;101270;;;;
2022/08/20 02:06:00;;;;;;;0.1;0.1;;;;;;;21.3;100.0;101280;;;;
2022/08/20 02:07:03;;;;;;;0.1;0.1;;;;;;;21.3;100.0;101280;;;;
2022/08/20 02:08:00;;;;;;;0.1;0.1;;;;;;;21.2;100.0;101270;;;;
2022/08/20 02:09:00;;;;;;;0.1;0.1;;;;;;;21.2;100.0;101270;;;;
2022/08/20 02:10:00;;;;;;;0.1;0.1;;;;;;;21.2;100.0;101270;;;;
2022/08/20 02:11:00;;;;;;;0.1;0.1;;;;;;;21.2;100.0;101270;;;;
2022/08/20 02:12:02;;;;;;;0.1;0.1;;;;;;;21.2;100.0;101270;;;;
2022/08/20 02:13:00;;;;;;;0.1;0.1;;;;;;;21.2;100.0;101270;;;;
2022/08/20 02:14:00;;;;;;;0.1;0.1;;;;;;;21.2;100.0;101270;;;;
2022/08/20 02:15:01;;;;;;;0.1;0.1;;;;;;;21.2;100.0;101270;;;;
2022/08/20 02:16:00;;;;;;;0.1;0.1;;;;;;;21.1;100.0;101280;;;;
2022/08/20 02:17:00;;;;;;;0.1;0.1;;;;;;;21.1;100.0;101280;;;;
2022/08/20 02:18:02;;;;;;;0.1;0.1;;;;;;;21.0;100.0;101280;;;;
2022/08/20 02:19:03;;;;;;;0.1;0.1;;;;;;;21.0;100.0;101280;;;;
2022/08/20 02:20:02;;;;;;;0.1;0.1;;;;;;;21.0;100.0;101280;;;;
2022/08/20 02:21:00;;;;;;;0.1;0.1;;;;;;;21.0;100.0;101280;;;;
2022/08/20 02:22:03;;;;;;;0.1;0.1;;;;;;;21.1;100.0;101280;;;;
2022/08/20 02:23:00;;;;;;;0.3;0.3;;;;;;;21.1;100.0;101280;;;;
2022/08/20 02:24:00;;;;;;;0.3;0.3;;;;;;;21.2;100.0;101270;;;;
2022/08/20 02:25:00;;;;;;;0.3;0.3;;;;;;;21.2;100.0;101270;;;;
2022/08/20 02:26:00;;;;;;;0.3;0.3;;;;;;;21.1;100.0;101280;;;;
2022/08/20 02:27:00;;;;;;;0.3;0.3;;;;;;;21.1;100.0;101280;;;;
2022/08/20 02:28:01;;;;;;;0.3;0.3;;;;;;;21.0;100.0;101280;;;;
2022/08/20 02:29:02;;;;;;;0.3;0.3;;;;;;;21.0;100.0;101280;;;;
2022/08/20 02:30:01;;;;;;;0.3;0.3;;;;;;;21.0;100.0;101280;;;;
2022/08/20 02:31:01;;;;;;;0.3;0.3;;;;;;;21.0;100.0;101280;;;;
2022/08/20 02:32:10;;;;;;;0.3;0.3;;;;;;;21.1;100.0;101280;;;;
2022/08/20 02:33:03;;;;;;;0.3;0.3;;;;;;;21.1;100.0;101280;;;;
2022/08/20 02:34:10;;;;;;;0.3;0.3;;;;;;;21.0;100.0;101280;;;;
2022/08/20 02:35:02;;;;;;;0.3;0.3;;;;;;;21.0;100.0;101280;;;;
2022/08/20 02:36:00;;;;;;;0.3;0.3;;;;;;;21.1;100.0;101280;;;;
2022/08/20 02:37:00;;;;;;;0.3;0.3;;;;;;;21.1;100.0;101280;;;;
2022/08/20 02:38:01;;;;;;;0.3;0.3;;;;;;;21.0;100.0;101280;;;;
2022/08/20 02:39:00;;;;;;;0.3;0.3;;;;;;;21.0;100.0;101280;;;;
2022/08/20 02:40:00;;;;;;;0.3;0.3;;;;;;;21.0;100.0;101280;;;;
2022/08/20 02:41:01;;;;;;;0.3;0.3;;;;;;;21.0;100.0;101280;;;;
2022/08/20 02:42:02;;;;;;;0.3;0.3;;;;;;;21.0;100.0;101280;;;;
2022/08/20 02:43:01;;;;;;;0.3;0.3;;;;;;;21.0;100.0;101280;;;;
2022/08/20 02:44:00;;;;;;;0.3;0.3;;;;;;;21.1;100.0;101280;;;;
2022/08/20 02:45:00;;;;;;;0.3;0.3;;;;;;;21.1;100.0;101280;;;;
2022/08/20 02:46:01;;;;;;;0.3;0.3;;;;;;;21.0;100.0;101280;;;;
2022/08/20 02:47:00;;;;;;;0.3;0.3;;;;;;;21.0;100.0;101280;;;;
2022/08/20 02:48:00;;;;;;;0.3;0.3;;;;;;;21.0;100.0;101280;;;;
2022/08/20 02:49:00;;;;;;;0.3;0.3;;;;;;;21.0;100.0;101280;;;;
2022/08/20 02:50:00;;;;;;;0.3;0.3;;;;;;;21.0;100.0;101290;;;;
2022/08/20 02:51:01;;;;;;;0.3;0.3;;;;;;;21.0;100.0;101290;;;;
2022/08/20 02:52:00;;;;;;;0.3;0.3;;;;;;;20.9;100.0;101280;;;;
2022/08/20 02:53:00;;;;;;;0.3;0.3;;;;;;;20.9;100.0;101280;;;;
2022/08/20 02:54:00;;;;;;;0.3;0.3;;;;;;;20.8;100.0;101290;;;;
2022/08/20 02:55:00;;;;;;;0.3;0.3;;;;;;;20.8;100.0;101290;;;;
2022/08/20 02:56:01;;;;;;;0.3;0.3;;;;;;;20.9;100.0;101280;;;;
2022/08/20 02:57:02;;;;;;;0.3;0.3;;;;;;;20.9;100.0;101280;;;;
2022/08/20 02:58:00;;;;;;;0.3;0.3;;;;;;;20.8;100.0;101290;;;;
2022/08/20 02:59:00;;;;;;;0.3;0.3;;;;;;;20.8;100.0;101290;;;;
2022/08/20 03:00:00;;;;;;;0.3;0.3;;;;;;;20.9;100.0;101290;;;;
2022/08/20 03:01:00;;;;;;;0.3;0.3;;;;;;;20.9;100.0;101290;;;;
2022/08/20 03:02:01;;;;;;;0.3;0.3;;;;;;;20.8;100.0;101290;;;;
2022/08/20 03:03:00;;;;;;;0.6;0.6;;;;;;;20.8;100.0;101290;;;;
2022/08/20 03:04:01;;;;;;;0.6;0.6;;;;;;;20.8;100.0;101290;;;;
2022/08/20 03:05:00;;;;;;;0.6;0.6;;;;;;;20.8;100.0;101290;;;;
2022/08/20 03:06:01;;;;;;;0.6;0.6;;;;;;;20.8;100.0;101290;;;;
2022/08/20 03:07:00;;;;;;;0.6;0.6;;;;;;;20.8;100.0;101290;;;;
2022/08/20 03:08:00;;;;;;;0.6;0.6;;;;;;;20.9;100.0;101290;;;;
2022/08/20 03:09:01;;;;;;;0.6;0.6;;;;;;;20.9;100.0;101290;;;;
2022/08/20 03:10:00;;;;;;;0.6;0.6;;;;;;;20.9;100.0;101290;;;;
2022/08/20 03:11:00;;;;;;;0.6;0.6;;;;;;;20.9;100.0;101290;;;;
2022/08/20 03:12:01;;;;;;;0.6;0.6;;;;;;;20.8;100.0;101280;;;;
2022/08/20 03:13:01;;;;;;;0.6;0.6;;;;;;;20.8;100.0;101280;;;;
2022/08/20 03:14:00;;;;;;;0.6;0.6;;;;;;;20.7;100.0;101280;;;;
2022/08/20 03:15:00;;;;;;;0.6;0.6;;;;;;;20.7;100.0;101280;;;;
2022/08/20 03:16:01;;;;;;;0.6;0.6;;;;;;;20.8;100.0;101280;;;;
2022/08/20 03:17:00;;;;;;;0.6;0.6;;;;;;;20.8;100.0;101280;;;;
2022/08/20 03:18:00;;;;;;;0.6;0.6;;;;;;;20.9;100.0;101280;;;;
2022/08/20 03:19:00;;;;;;;0.6;0.6;;;;;;;20.9;100.0;101280;;;;
2022/08/20 03:20:00;;;;;;;0.6;0.6;;;;;;;20.9;100.0;101280;;;;
2022/08/20 03:21:01;;;;;;;0.6;0.6;;;;;;;20.9;100.0;101280;;;;
2022/08/20 03:22:00;;;;;;;0.6;0.6;;;;;;;20.9;100.0;101280;;;;
2022/08/20 03:23:00;;;;;;;0.2;0.2;;;;;;;20.9;100.0;101280;;;;
2022/08/20 03:24:00;;;;;;;0.2;0.2;;;;;;;20.9;100.0;101280;;;;
2022/08/20 03:25:00;;;;;;;0.2;0.2;;;;;;;20.9;100.0;101280;;;;
2022/08/20 03:26:01;;;;;;;0.2;0.2;;;;;;;20.8;100.0;101280;;;;
2022/08/20 03:27:00;;;;;;;0.2;0.2;;;;;;;20.8;100.0;101280;;;;
2022/08/20 03:28:00;;;;;;;0.2;0.2;;;;;;;20.8;100.0;101280;;;;
2022/08/20 03:29:00;;;;;;;0.2;0.2;;;;;;;20.8;100.0;101280;;;;
2022/08/20 03:30:00;;;;;;;0.2;0.2;;;;;;;20.8;100.0;101280;;;;
2022/08/20 03:31:00;;;;;;;0.2;0.2;;;;;;;20.8;100.0;101280;;;;
2022/08/20 03:32:00;;;;;;;0.2;0.2;;;;;;;20.7;100.0;101280;;;;
2022/08/20 03:33:00;;;;;;;0.2;0.2;;;;;;;20.7;100.0;101280;;;;
2022/08/20 03:34:00;;;;;;;0.2;0.2;;;;;;;20.7;100.0;101280;;;;
2022/08/20 03:35:00;;;;;;;0.2;0.2;;;;;;;20.7;100.0;101280;;;;
2022/08/20 03:36:00;;;;;;;0.2;0.2;;;;;;;20.6;100.0;101280;;;;
2022/08/20 03:37:00;;;;;;;0.2;0.2;;;;;;;20.6;100.0;101280;;;;
2022/08/20 03:38:00;;;;;;;0.2;0.2;;;;;;;20.6;100.0;101290;;;;
2022/08/20 03:39:03;;;;;;;0.2;0.2;;;;;;;20.6;100.0;101290;;;;
2022/08/20 03:40:02;;;;;;;0.2;0.2;;;;;;;20.6;100.0;101290;;;;
2022/08/20 03:41:01;;;;;;;0.2;0.2;;;;;;;20.6;100.0;101290;;;;
2022/08/20 03:42:00;;;;;;;0.2;0.2;;;;;;;20.7;100.0;101290;;;;
2022/08/20 03:43:00;;;;;;;0.4;0.4;;;;;;;20.7;100.0;101290;;;;
2022/08/20 03:44:00;;;;;;;0.4;0.4;;;;;;;20.6;100.0;101290;;;;
2022/08/20 03:45:00;;;;;;;0.4;0.4;;;;;;;20.6;100.0;101290;;;;
2022/08/20 03:46:00;;;;;;;0.4;0.4;;;;;;;20.6;100.0;101290;;;;
2022/08/20 03:47:01;;;;;;;0.4;0.4;;;;;;;20.6;100.0;101290;;;;
2022/08/20 03:48:00;;;;;;;0.4;0.4;;;;;;;20.5;100.0;101290;;;;
2022/08/20 03:49:01;;;;;;;0.4;0.4;;;;;;;20.5;100.0;101290;;;;
2022/08/20 03:50:01;;;;;;;0.4;0.4;;;;;;;20.6;100.0;101290;;;;
2022/08/20 03:51:00;;;;;;;0.4;0.4;;;;;;;20.6;100.0;101290;;;;
2022/08/20 03:52:01;;;;;;;0.4;0.4;;;;;;;20.6;100.0;101280;;;;
2022/08/20 03:53:00;;;;;;;0.4;0.4;;;;;;;20.6;100.0;101280;;;;
2022/08/20 03:54:00;;;;;;;0.4;0.4;;;;;;;20.5;100.0;101280;;;;
2022/08/20 03:55:00;;;;;;;0.4;0.4;;;;;;;20.5;100.0;101280;;;;
2022/08/20 03:56:03;;;;;;;0.4;0.4;;;;;;;20.6;100.0;101290;;;;
2022/08/20 03:57:01;;;;;;;0.4;0.4;;;;;;;20.6;100.0;101290;;;;
2022/08/20 03:58:01;;;;;;;0.4;0.4;;;;;;;20.5;100.0;101280;;;;
2022/08/20 03:59:00;;;;;;;0.4;0.4;;;;;;;20.5;100.0;101280;;;;
2022/08/20 04:00:01;;;;;;;0.4;0.4;;;;;;;20.5;100.0;101280;;;;
2022/08/20 04:01:00;;;;;;;0.4;0.4;;;;;;;20.5;100.0;101280;;;;
2022/08/20 04:02:00;;;;;;;0.4;0.4;;;;;;;20.5;100.0;101280;;;;
2022/08/20 04:03:00;;;;;;;0.3;0.3;;;;;;;20.5;100.0;101280;;;;
2022/08/20 04:04:00;;;;;;;0.3;0.3;;;;;;;20.6;100.0;101280;;;;
2022/08/20 04:05:00;;;;;;;0.3;0.3;;;;;;;20.6;100.0;101280;;;;
2022/08/20 04:06:00;;;;;;;0.3;0.3;;;;;;;20.6;100.0;101290;;;;
2022/08/20 04:07:07;;;;;;;0.3;0.3;;;;;;;20.6;100.0;101280;;;;
2022/08/20 04:08:04;;;;;;;0.3;0.3;;;;;;;20.6;100.0;101280;;;;
2022/08/20 04:09:00;;;;;;;0.3;0.3;;;;;;;20.6;100.0;101280;;;;
2022/08/20 04:10:04;;;;;;;0.3;0.3;;;;;;;20.4;100.0;101290;;;;
2022/08/20 04:11:00;;;;;;;0.3;0.3;;;;;;;20.4;100.0;101290;;;;
2022/08/20 04:12:00;;;;;;;0.3;0.3;;;;;;;20.6;100.0;101290;;;;
2022/08/20 04:13:01;;;;;;;0.3;0.3;;;;;;;20.6;100.0;101290;;;;
2022/08/20 04:14:01;;;;;;;0.3;0.3;;;;;;;20.6;100.0;101290;;;;
2022/08/20 04:15:02;;;;;;;0.3;0.3;;;;;;;20.6;100.0;101290;;;;
2022/08/20 04:16:02;;;;;;;0.3;0.3;;;;;;;20.6;100.0;101300;;;;
2022/08/20 04:17:03;;;;;;;0.3;0.3;;;;;;;20.6;100.0;101300;;;;
2022/08/20 04:18:02;;;;;;;0.3;0.3;;;;;;;20.6;100.0;101300;;;;
2022/08/20 04:19:02;;;;;;;0.3;0.3;;;;;;;20.6;100.0;101300;;;;
2022/08/20 04:20:02;;;;;;;0.3;0.3;;;;;;;20.5;100.0;101300;;;;
2022/08/20 04:21:00;;;;;;;0.3;0.3;;;;;;;20.5;100.0;101300;;;;
2022/08/20 04:22:00;;;;;;;0.3;0.3;;;;;;;20.5;100.0;101300;;;;
2022/08/20 04:23:00;;;;;;;2.0;1.3;;;;;;;20.5;100.0;101300;;;;
2022/08/20 04:24:01;;;;;;;2.0;1.3;;;;;;;20.5;100.0;101300;;;;
2022/08/20 04:25:00;;;;;;;2.0;1.3;;;;;;;20.5;100.0;101300;;;;
2022/08/20 04:26:00;;;;;;;2.0;1.3;;;;;;;20.5;100.0;101300;;;;
2022/08/20 04:27:01;;;;;;;2.0;1.3;;;;;;;20.5;100.0;101300;;;;
2022/08/20 04:28:01;;;;;;;2.0;1.3;;;;;;;20.6;100.0;101300;;;;
2022/08/20 04:29:00;;;;;;;2.0;1.3;;;;;;;20.6;100.0;101300;;;;
2022/08/20 04:30:02;;;;;;;2.0;1.3;;;;;;;20.5;100.0;101310;;;;
2022/08/20 04:31:00;;;;;;;2.0;1.3;;;;;;;20.5;100.0;101310;;;;
2022/08/20 04:32:02;;;;;;;2.0;1.3;;;;;;;20.4;100.0;101310;;;;
2022/08/20 04:33:00;;;;;;;2.0;1.3;;;;;;;20.4;100.0;101310;;;;
2022/08/20 04:34:01;;;;;;;2.0;1.3;;;;;;;20.5;100.0;101310;;;;
2022/08/20 04:35:00;;;;;;;2.0;1.3;;;;;;;20.5;100.0;101310;;;;
2022/08/20 04:36:01;;;;;;;2.0;1.3;;;;;;;20.5;100.0;101310;;;;
2022/08/20 04:37:00;;;;;;;2.0;1.3;;;;;;;20.5;100.0;101310;;;;
2022/08/20 04:38:01;;;;;;;2.0;1.3;;;;;;;20.4;100.0;101310;;;;
2022/08/20 04:39:00;;;;;;;2.0;1.3;;;;;;;20.4;100.0;101310;;;;
2022/08/20 04:41:00;;;;;;;2.0;1.3;;;;;;;20.5;100.0;101310;;;;
2022/08/20 04:42:00;;;;;;;2.0;1.3;;;;;;;20.4;100.0;101320;;;;
2022/08/20 04:43:00;;;;;;;0.3;0.3;;;;;;;20.4;100.0;101320;;;;
2022/08/20 04:44:00;;;;;;;0.3;0.3;;;;;;;20.4;100.0;101320;;;;
2022/08/20 04:45:00;;;;;;;0.3;0.3;;;;;;;20.4;100.0;101320;;;;
2022/08/20 04:46:01;;;;;;;0.3;0.3;;;;;;;20.4;100.0;101320;;;;
2022/08/20 04:47:00;;;;;;;0.3;0.3;;;;;;;20.4;100.0;101320;;;;
2022/08/20 04:48:04;;;;;;;0.3;0.3;;;;;;;20.3;100.0;101320;;;;
2022/08/20 04:49:01;;;;;;;0.3;0.3;;;;;;;20.3;100.0;101320;;;;
2022/08/20 04:50:00;;;;;;;0.3;0.3;;;;;;;20.4;100.0;101320;;;;
2022/08/20 04:51:01;;;;;;;0.3;0.3;;;;;;;20.4;100.0;101320;;;;
2022/08/20 04:52:02;;;;;;;0.3;0.3;;;;;;;20.5;100.0;101330;;;;
2022/08/20 04:53:00;;;;;;;0.3;0.3;;;;;;;20.5;100.0;101330;;;;
2022/08/20 04:54:01;;;;;;;0.3;0.3;;;;;;;20.5;100.0;101330;;;;
2022/08/20 04:55:00;;;;;;;0.3;0.3;;;;;;;20.5;100.0;101330;;;;
2022/08/20 04:56:00;;;;;;;0.3;0.3;;;;;;;20.4;100.0;101330;;;;
2022/08/20 04:57:00;;;;;;;0.3;0.3;;;;;;;20.4;100.0;101330;;;;
2022/08/20 04:58:03;;;;;;;0.3;0.3;;;;;;;20.5;100.0;101330;;;;
2022/08/20 04:59:00;;;;;;;0.3;0.3;;;;;;;20.5;100.0;101330;;;;
2022/08/20 05:00:00;;;;;;;0.3;0.3;;;;;;;20.5;100.0;101330;;;;
2022/08/20 05:01:02;;;;;;;0.3;0.3;;;;;;;20.5;100.0;101330;;;;
2022/08/20 05:02:01;;;;;;;0.3;0.3;;;;;;;20.5;100.0;101340;;;;
2022/08/20 05:03:00;;;;;;;0.3;0.3;;;;;;;20.5;100.0;101340;;;;
2022/08/20 05:04:00;;;;;;;0.3;0.3;;;;;;;20.4;100.0;101340;;;;
2022/08/20 05:05:00;;;;;;;0.3;0.3;;;;;;;20.4;100.0;101340;;;;
2022/08/20 05:06:00;;;;;;;0.3;0.3;;;;;;;20.5;100.0;101340;;;;
2022/08/20 05:07:00;;;;;;;0.3;0.3;;;;;;;20.5;100.0;101340;;;;
2022/08/20 05:08:00;;;;;;;0.3;0.3;;;;;;;20.5;100.0;101340;;;;
2022/08/20 05:09:00;;;;;;;0.3;0.3;;;;;;;20.5;100.0;101340;;;;
2022/08/20 05:10:02;;;;;;;0.3;0.3;;;;;;;20.5;100.0;101340;;;;
2022/08/20 05:11:11;;;;;;;0.3;0.3;;;;;;;20.5;100.0;101340;;;;
2022/08/20 05:12:00;;;;;;;0.3;0.3;;;;;;;20.5;100.0;101340;;;;
2022/08/20 05:13:00;;;;;;;0.3;0.3;;;;;;;20.5;100.0;101340;;;;
2022/08/20 05:14:00;;;;;;;0.3;0.3;;;;;;;20.5;100.0;101340;;;;
2022/08/20 05:15:00;;;;;;;0.3;0.3;;;;;;;20.5;100.0;101340;;;;
2022/08/20 05:16:01;;;;;;;0.3;0.3;;;;;;;20.4;100.0;101350;;;;
2022/08/20 05:17:03;;;;;;;0.3;0.3;;;;;;;20.4;100.0;101350;;;;
2022/08/20 05:18:01;;;;;;;0.3;0.3;;;;;;;20.4;100.0;101350;;;;
2022/08/20 05:19:00;;;;;;;0.3;0.3;;;;;;;20.4;100.0;101350;;;;
2022/08/20 05:20:00;;;;;;;0.3;0.3;;;;;;;20.4;100.0;101350;;;;
2022/08/20 05:21:08;;;;;;;0.3;0.3;;;;;;;20.4;100.0;101350;;;;
2022/08/20 05:22:00;;;;;;;0.3;0.3;;;;;;;20.4;100.0;101350;;;;
2022/08/20 05:23:00;;;;;;;0.9;0.9;;;;;;;20.4;100.0;101350;;;;
2022/08/20 05:24:01;;;;;;;0.9;0.9;;;;;;;20.3;100.0;101350;;;;
2022/08/20 05:25:00;;;;;;;0.9;0.9;;;;;;;20.3;100.0;101350;;;;
2022/08/20 05:26:04;;;;;;;0.9;0.9;;;;;;;20.4;100.0;101350;;;;
2022/08/20 05:27:00;;;;;;;0.9;0.9;;;;;;;20.4;100.0;101350;;;;
2022/08/20 05:28:01;;;;;;;0.9;0.9;;;;;;;20.4;100.0;101350;;;;
2022/08/20 05:29:00;;;;;;;0.9;0.9;;;;;;;20.4;100.0;101350;;;;
2022/08/20 05:30:05;;;;;;;0.9;0.9;;;;;;;20.4;100.0;101350;;;;
2022/08/20 05:31:00;;;;;;;0.9;0.9;;;;;;;20.4;100.0;101350;;;;
2022/08/20 05:32:00;;;;;;;0.9;0.9;;;;;;;20.2;100.0;101360;;;;
2022/08/20 05:33:00;;;;;;;0.9;0.9;;;;;;;20.2;100.0;101360;;;;
2022/08/20 05:34:08;;;;;;;0.9;0.9;;;;;;;20.2;100.0;101360;;;;
2022/08/20 05:35:00;;;;;;;0.9;0.9;;;;;;;20.2;100.0;101360;;;;
2022/08/20 05:36:01;;;;;;;0.9;0.9;;;;;;;20.2;100.0;101360;;;;
2022/08/20 05:37:02;;;;;;;0.9;0.9;;;;;;;20.2;100.0;101360;;;;
2022/08/20 05:38:01;;;;;;;0.9;0.9;;;;;;;20.2;100.0;101360;;;;
2022/08/20 05:39:00;;;;;;;0.9;0.9;;;;;;;20.2;100.0;101360;;;;
2022/08/20 05:40:02;;;;;;;0.9;0.9;;;;;;;20.3;100.0;101350;;;;
2022/08/20 05:41:00;;;;;;;0.9;0.9;;;;;;;20.3;100.0;101350;;;;
2022/08/20 05:42:00;;;;;;;0.9;0.9;;;;;;;20.3;100.0;101360;;;;
2022/08/20 05:43:03;;;;;;;0.3;0.3;;;;;;;20.3;100.0;101360;;;;
2022/08/20 05:44:00;;;;;;;0.3;0.3;;;;;;;20.2;100.0;101360;;;;
2022/08/20 05:45:00;;;;;;;0.3;0.3;;;;;;;20.2;100.0;101360;;;;
2022/08/20 05:46:00;;;;;;;0.3;0.3;;;;;;;20.3;100.0;101360;;;;
2022/08/20 05:47:04;;;;;;;0.3;0.3;;;;;;;20.3;100.0;101360;;;;
2022/08/20 05:48:04;;;;;;;0.3;0.3;;;;;;;20.3;100.0;101370;;;;
2022/08/20 05:49:00;;;;;;;0.3;0.3;;;;;;;20.3;100.0;101370;;;;
2022/08/20 05:50:02;;;;;;;0.3;0.3;;;;;;;20.3;100.0;101370;;;;
2022/08/20 05:51:00;;;;;;;0.3;0.3;;;;;;;20.3;100.0;101370;;;;
2022/08/20 05:52:00;;;;;;;0.3;0.3;;;;;;;20.4;100.0;101360;;;;
2022/08/20 05:53:00;;;;;;;0.3;0.3;;;;;;;20.4;100.0;101360;;;;
2022/08/20 05:54:00;;;;;;;0.3;0.3;;;;;;;20.3;100.0;101360;;;;
2022/08/20 05:55:00;;;;;;;0.3;0.3;;;;;;;20.3;100.0;101360;;;;
2022/08/20 05:56:00;;;;;;;0.3;0.3;;;;;;;20.2;100.0;101370;;;;
2022/08/20 05:57:00;;;;;;;0.3;0.3;;;;;;;20.2;100.0;101370;;;;
2022/08/20 05:58:01;;;;;;;0.3;0.3;;;;;;;20.3;100.0;101370;;;;
2022/08/20 05:59:02;;;;;;;0.3;0.3;;;;;;;20.3;100.0;101370;;;;
2022/08/20 06:00:01;;;;;;;0.3;0.3;;;;;;;20.2;100.0;101370;;;;
2022/08/20 06:01:00;;;;;;;0.3;0.3;;;;;;;20.2;100.0;101370;;;;
2022/08/20 06:02:00;;;;;;;0.3;0.3;;;;;;;20.2;100.0;101370;;;;
2022/08/20 06:05:00;;;;;;;0.4;0.4;;;;;;;20.4;100.0;101370;;;;
2022/08/20 06:06:00;;;;;;;0.4;0.4;;;;;;;20.3;100.0;101370;;;;
2022/08/20 06:07:02;;;;;;;0.4;0.4;;;;;;;20.3;100.0;101370;;;;
2022/08/20 06:08:08;;;;;;;0.4;0.4;;;;;;;20.2;100.0;101370;;;;
2022/08/20 06:09:00;;;;;;;0.4;0.4;;;;;;;20.2;100.0;101370;;;;
2022/08/20 06:10:00;;;;;;;0.4;0.4;;;;;;;20.3;100.0;101370;;;;
2022/08/20 06:11:00;;;;;;;0.4;0.4;;;;;;;20.3;100.0;101370;;;;
2022/08/20 06:12:01;;;;;;;0.4;0.4;;;;;;;20.3;100.0;101380;;;;
2022/08/20 06:13:01;;;;;;;0.4;0.4;;;;;;;20.3;100.0;101380;;;;
2022/08/20 06:14:00;;;;;;;0.4;0.4;;;;;;;20.3;100.0;101380;;;;
2022/08/20 06:15:00;;;;;;;0.4;0.4;;;;;;;20.3;100.0;101380;;;;
2022/08/20 06:16:00;;;;;;;0.4;0.4;;;;;;;20.3;100.0;101380;;;;
2022/08/20 06:17:02;;;;;;;0.4;0.4;;;;;;;20.3;100.0;101380;;;;
2022/08/20 06:18:00;;;;;;;0.4;0.4;;;;;;;20.4;100.0;101380;;;;
2022/08/20 06:19:03;;;;;;;0.4;0.4;;;;;;;20.4;100.0;101380;;;;
2022/08/20 06:20:01;;;;;;;0.4;0.4;;;;;;;20.4;100.0;101380;;;;
2022/08/20 06:21:00;;;;;;;0.4;0.4;;;;;;;20.4;100.0;101380;;;;
2022/08/20 06:22:00;;;;;;;0.4;0.4;;;;;;;20.4;100.0;101380;;;;
2022/08/20 06:23:00;;;;;;;2.0;1.7;;;;;;;20.4;100.0;101380;;;;
2022/08/20 06:24:01;;;;;;;2.0;1.7;;;;;;;20.3;100.0;101380;;;;
2022/08/20 06:25:00;;;;;;;2.0;1.7;;;;;;;20.3;100.0;101380;;;;
2022/08/20 06:26:00;;;;;;;2.0;1.7;;;;;;;20.4;100.0;101380;;;;
2022/08/20 06:27:02;;;;;;;2.0;1.7;;;;;;;20.4;100.0;101380;;;;